Terminal Aerodrome Forecast
Issued by NWS Jackson, MS

Home | Current Version | Previous Version | Text Only | Print | Product List | Glossary On
Versions: 1 2 3 4 5 6 7 8 9 10 11 12
778
FTUS44 KJAN 141120
TAFGWO
TAF
KGWO 141120Z 1412/1512 12010KT P6SM OVC050
     FM150400 17011KT P6SM OVC025
     FM150700 18013KT P6SM -SHRA OVC015=

USA.gov is the U.S. government's official web portal to all federal, state and local government web resources and services.